createdAt,value
2022-09-15T00:04:32.494Z,18.07
2022-09-15T00:19:48.466Z,18.06
2022-09-15T00:35:05.442Z,18.049999999999997
2022-09-15T00:50:22.437Z,17.589999999999996
2022-09-15T01:05:39.376Z,17.609999999999992
2022-09-15T01:20:55.377Z,17.56
2022-09-15T01:36:12.320Z,17.47
2022-09-15T01:51:28.319Z,17.420000000000005
2022-09-15T02:06:44.287Z,17.27
2022-09-15T02:22:00.279Z,17.260000000000005
2022-09-15T02:37:17.196Z,17.31
2022-09-15T02:52:34.210Z,17.25
2022-09-15T03:07:51.173Z,17.289999999999996
2022-09-15T03:23:07.150Z,17.25
2022-09-15T03:38:24.075Z,17.070000000000004
2022-09-15T03:53:40.325Z,16.95
2022-09-15T04:08:56.055Z,16.78
2022-09-15T04:24:13.024Z,16.659999999999997
2022-09-15T04:39:30.964Z,16.61
2022-09-15T04:54:47.966Z,16.500000000000004
2022-09-15T05:10:03.941Z,16.41
2022-09-15T05:25:19.874Z,16.29
2022-09-15T05:40:36.897Z,16.23
2022-09-15T05:55:52.821Z,16.41
2022-09-15T06:11:08.823Z,16.89
2022-09-15T06:26:25.769Z,17.030000000000005
2022-09-15T06:42:01.311Z,17.16
2022-09-15T06:57:00.698Z,17.37
2022-09-15T07:12:16.715Z,17.54
2022-09-15T07:27:32.640Z,17.919999999999998
2022-09-15T07:42:50.646Z,18.029999999999998
2022-09-15T07:58:06.594Z,18.24
2022-09-15T08:13:22.582Z,18.55
2022-09-15T08:28:39.521Z,19.020000000000003
2022-09-15T08:43:57.528Z,18.709068817207456
2022-09-15T08:59:13.468Z,17.93636225899107
2022-09-15T09:14:29.458Z,17.70441810922806
2022-09-15T09:29:45.407Z,18.22164327051045
2022-09-15T09:45:02.364Z,17.97555664882379
2022-09-15T10:00:18.372Z,17.562203794632875
2022-09-15T10:15:35.299Z,17.575541187156464
2022-09-15T10:30:52.294Z,17.031491233508504
2022-09-15T10:46:09.256Z,16.7314080175875
2022-09-15T11:01:25.331Z,16.682049275096386
2022-09-15T11:16:41.275Z,16.571329397422847
2022-09-15T11:31:57.308Z,16.882483192508186
2022-09-15T11:47:14.098Z,16.649340654393995
2022-09-15T12:02:30.206Z,17.364483758368763
2022-09-15T12:17:47.036Z,16.562280007681895
2022-09-15T12:33:00.123Z,16.654568592592824
2022-09-15T12:48:16.009Z,16.4407012497255
2022-09-15T13:03:31.975Z,16.092648580711867
2022-09-15T13:18:47.905Z,16.77257795319117
2022-09-15T13:49:21.849Z,17.2174168607969
2022-09-15T14:04:38.807Z,16.250922115853328
2022-09-15T14:19:54.811Z,16.598299948815356
2022-09-15T14:35:14.901Z,15.789396960202264
2022-09-15T14:50:31.870Z,15.779854386993089
2022-09-15T15:05:43.684Z,16.334770603827575
2022-09-15T15:06:29.702Z,16.334770603827575
2022-09-15T15:21:00.682Z,16.205562785822092
2022-09-15T15:36:17.615Z,15.95336729983184
2022-09-15T15:51:33.611Z,14.777180742681669
2022-09-15T16:06:50.584Z,15.742828037352686
2022-09-15T16:22:07.544Z,16.360551530676176
2022-09-15T16:37:24.518Z,15.114112449674302
2022-09-15T16:52:40.489Z,19.87853649907238
2022-09-15T17:07:56.464Z,20.33
2022-09-15T17:23:12.432Z,19.25
2022-09-15T17:38:29.415Z,18.929999999999996
2022-09-15T17:53:45.416Z,18.67
2022-09-15T18:09:02.342Z,18.510000000000005
2022-09-15T18:24:19.309Z,18.659999999999997
2022-09-15T18:39:36.285Z,18.630000000000003
2022-09-15T18:54:52.210Z,18.650000000000002
2022-09-15T19:10:08.218Z,18.74
2022-09-15T19:25:24.156Z,18.559999999999995
2022-09-15T19:40:41.155Z,18.559999999999995
2022-09-15T19:55:58.104Z,18.49
2022-09-15T20:11:15.094Z,18.210000000000004
2022-09-15T20:26:32.040Z,18.089999999999996
2022-09-15T20:41:50.036Z,18.14
2022-09-15T20:57:05.973Z,18.18
2022-09-15T21:12:22.991Z,18.07
2022-09-15T21:27:39.919Z,17.98
2022-09-15T21:42:57.935Z,17.919999999999998
2022-09-15T21:58:13.868Z,17.86
2022-09-15T22:13:29.878Z,17.940000000000005
2022-09-15T22:28:45.804Z,17.870000000000005
2022-09-15T22:44:02.800Z,17.9
2022-09-15T22:59:18.749Z,17.870000000000005
2022-09-15T23:14:35.757Z,17.700000000000003
2022-09-15T23:29:52.720Z,17.609999999999992
2022-09-15T23:45:09.656Z,17.430000000000003
